Time;durP1;ratioP1;P1;durP2;ratioP2;P2;SDS_P1;SDS_P2;PMS_P1;PMS_P2;Temp;Humidity;BMP_temperature;BMP_pressure;BME280_temperature;BME280_humidity;BME280_pressure;Samples;Min_cycle;Max_cycle;Signal;HPM_P1;HPM_P2
2022/03/17 00:00:49;;;;;;;2.95;2.03;;;;;;;;;;5032100;28;20152;-83
2022/03/17 00:03:34;;;;;;;3.03;1.42;;;;;;;;;;5029743;28;20049;-83
2022/03/17 00:06:09;;;;;;;4.47;2.03;;;;;;;;;;4972992;28;20055;-83
2022/03/17 00:09:04;;;;;;;;;;;;;;;;;;;;;
2022/03/17 00:15:01;;;;;;;;;;;;;;;;;;;;;
2022/03/17 00:17:41;;;;;;;1.03;0.83;;;;;;;;;;5025406;28;44363;-82
2022/03/17 00:20:19;;;;;;;4.47;1.25;;;;;;;;;;5027006;28;20363;-83
2022/03/17 00:22:57;;;;;;;3.10;1.50;;;;;;;;;;5014131;28;20599;-83
2022/03/17 00:25:38;;;;;;;4.05;1.52;;;;;;;;;;5025370;28;20041;-82
2022/03/17 00:28:36;;;;;;;2.67;1.42;;;;;;;;;;5014241;28;20116;-82
2022/03/17 00:31:18;;;;;;;1.23;1.00;;;;;;;;;;5006067;28;20050;-82
2022/03/17 00:34:29;;;;;;;2.80;1.52;;;;;;;;;;5012668;28;20037;-82
2022/03/17 00:37:18;;;;;;;6.60;1.42;;;;;;;;;;5040771;28;20112;-83
2022/03/17 00:39:49;;;;;;;2.63;1.42;;;;;;;;;;5062918;27;20103;-83
2022/03/17 00:42:16;;;;;;;3.05;1.70;;;;;;;;;;5072844;27;20052;-79
2022/03/17 00:44:52;;;;;;;2.55;1.50;;;;;;;;;;5074317;27;20155;-80
2022/03/17 00:47:34;;;;;;;4.85;1.30;;;;;;;;;;5067723;28;20586;-80
2022/03/17 00:50:19;;;;;;;;;;;;;;;;;;5073216;28;20060;-80
2022/03/17 00:53:01;;;;;;;;;;;;;;;;;;;;;
2022/03/17 00:55:40;;;;;;;2.35;1.48;;;;;;;;;;5097556;27;41745;-80
2022/03/17 01:01:26;;;;;;;4.38;1.80;;;;;;;;;;5089964;27;20044;-80
2022/03/17 01:03:58;;;;;;;3.13;1.65;;;;;;;;;;5077645;27;20855;-80
2022/03/17 01:06:42;;;;;;;2.58;1.15;;;;;;;;;;5075667;28;20113;-81
2022/03/17 01:09:28;;;;;;;2.65;1.58;;;;;;;;;;5066787;28;20518;-81
2022/03/17 01:12:08;;;;;;;2.90;1.70;;;;;;;;;;5077820;27;20091;-82
2022/03/17 01:17:39;;;;;;;;;;;;;;;;;;;;;
2022/03/17 01:20:15;;;;;;;5.18;1.88;;;;;;;;;;5094625;27;38859;-81
2022/03/17 01:23:00;;;;;;;3.72;1.75;;;;;;;;;;5073221;28;20060;-81
2022/03/17 01:28:42;;;;;;;4.63;2.22;;;;;;;;;;5068160;28;20107;-81
2022/03/17 01:34:53;;;;;;;;;;;;;;;;;;;;;
2022/03/17 01:37:43;;;;;;;3.55;2.20;;;;;;;;;;5054484;28;42693;-80
2022/03/17 01:40:31;;;;;;;5.35;2.92;;;;;;;;;;5055452;28;20590;-81
2022/03/17 01:43:10;;;;;;;7.05;3.20;;;;;;;;;;5049200;28;20061;-81
2022/03/17 01:46:11;;;;;;;4.72;2.50;;;;;;;;;;5067462;28;20549;-81
2022/03/17 01:49:07;;;;;;;3.35;2.38;;;;;;;;;;5057407;28;20503;-81
2022/03/17 01:51:45;;;;;;;4.15;3.05;;;;;;;;;;5049407;28;20756;-81
2022/03/17 01:54:18;;;;;;;5.70;3.22;;;;;;;;;;5060691;28;20044;-81
2022/03/17 02:03:06;;;;;;;;;;;;;;;;;;;;;
2022/03/17 02:05:34;;;;;;;6.22;3.42;;;;;;;;;;5067327;28;39810;-81
2022/03/17 02:08:03;;;;;;;6.90;3.38;;;;;;;;;;5048955;28;20048;-80
2022/03/17 02:13:08;;;;;;;10.43;3.53;;;;;;;;;;5052618;28;20479;-81
2022/03/17 02:13:22;;;;;;;4.72;2.80;;;;;;;;;;5069805;28;22041;-81
2022/03/17 02:15:52;;;;;;;6.20;3.95;;;;;;;;;;5065351;28;20053;-80
2022/03/17 02:18:20;;;;;;;6.03;3.38;;;;;;;;;;5068646;28;20057;-81
2022/03/17 02:20:59;;;;;;;4.18;2.92;;;;;;;;;;5051882;28;20047;-81
2022/03/17 02:26:13;;;;;;;6.82;3.78;;;;;;;;;;5050172;28;20041;-80
2022/03/17 02:28:45;;;;;;;8.98;3.88;;;;;;;;;;5052679;28;20041;-81
2022/03/17 02:31:12;;;;;;;9.73;4.25;;;;;;;;;;5051160;28;20042;-81
2022/03/17 02:33:40;;;;;;;8.23;4.75;;;;;;;;;;5059213;28;20195;-81
2022/03/17 02:36:09;;;;;;;6.13;3.92;;;;;;;;;;5047144;28;20041;-81
2022/03/17 02:38:38;;;;;;;6.88;3.38;;;;;;;;;;5050101;28;20128;-81
2022/03/17 02:41:06;;;;;;;8.15;3.65;;;;;;;;;;5051027;28;20183;-82
2022/03/17 02:43:37;;;;;;;7.78;4.15;;;;;;;;;;5039231;28;20500;-81
2022/03/17 02:46:10;;;;;;;8.63;4.38;;;;;;;;;;5051048;28;20053;-81
2022/03/17 02:48:39;;;;;;;8.88;4.38;;;;;;;;;;5049761;28;20180;-81
2022/03/17 02:51:06;;;;;;;14.30;5.30;;;;;;;;;;5048773;28;20050;-81
2022/03/17 02:53:32;;;;;;;11.20;4.60;;;;;;;;;;5053181;28;20041;-81
2022/03/17 02:56:01;;;;;;;7.55;3.70;;;;;;;;;;5052184;28;20938;-81
2022/03/17 02:58:30;;;;;;;8.73;5.35;;;;;;;;;;5052925;28;20048;-81
2022/03/17 03:00:59;;;;;;;9.55;5.65;;;;;;;;;;5056755;28;20038;-81
2022/03/17 03:03:28;;;;;;;10.75;7.25;;;;;;;;;;5056698;28;20056;-81
2022/03/17 03:05:56;;;;;;;10.35;6.07;;;;;;;;;;5053255;28;20523;-82
2022/03/17 03:08:27;;;;;;;10.85;6.35;;;;;;;;;;5054234;28;20049;-81
2022/03/17 03:10:57;;;;;;;12.20;5.60;;;;;;;;;;5056787;28;20053;-81
2022/03/17 03:13:23;;;;;;;10.18;5.47;;;;;;;;;;5057607;28;20667;-81
2022/03/17 03:15:52;;;;;;;9.30;6.38;;;;;;;;;;5040992;28;20052;-80
2022/03/17 03:18:19;;;;;;;13.77;7.05;;;;;;;;;;5067170;28;20064;-81
2022/03/17 03:20:45;;;;;;;15.40;6.75;;;;;;;;;;5067007;28;20037;-80
2022/03/17 03:23:15;;;;;;;15.80;8.35;;;;;;;;;;5072618;28;20551;-81
2022/03/17 03:25:45;;;;;;;10.55;4.15;;;;;;;;;;5066127;28;20809;-81
2022/03/17 03:28:12;;;;;;;13.27;7.38;;;;;;;;;;5070936;28;20072;-81
2022/03/17 03:30:41;;;;;;;13.82;6.97;;;;;;;;;;5068261;28;20515;-81
2022/03/17 03:33:13;;;;;;;16.67;7.35;;;;;;;;;;5068582;28;20041;-82
2022/03/17 03:38:39;;;;;;;9.17;6.53;;;;;;;;;;5045746;28;20618;-80
2022/03/17 03:41:11;;;;;;;11.98;6.20;;;;;;;;;;5075216;28;20044;-81
2022/03/17 03:43:41;;;;;;;15.20;7.25;;;;;;;;;;5069343;28;20566;-82
2022/03/17 03:46:10;;;;;;;13.63;7.18;;;;;;;;;;5069675;28;20565;-81
2022/03/17 03:48:42;;;;;;;12.00;6.43;;;;;;;;;;5060642;28;20050;-81
2022/03/17 03:51:10;;;;;;;7.93;5.30;;;;;;;;;;5060299;28;20040;-80
2022/03/17 03:56:27;;;;;;;11.13;7.00;;;;;;;;;;5071498;28;20045;-81
2022/03/17 03:59:01;;;;;;;12.73;8.40;;;;;;;;;;5077561;28;20051;-81
2022/03/17 04:01:32;;;;;;;12.32;6.93;;;;;;;;;;5076262;28;20047;-85
2022/03/17 04:04:01;;;;;;;11.48;6.55;;;;;;;;;;5074342;28;20044;-81
2022/03/17 04:06:45;;;;;;;12.27;7.05;;;;;;;;;;5076186;28;20087;-82
2022/03/17 04:09:12;;;;;;;14.38;7.93;;;;;;;;;;5074529;28;20029;-80
2022/03/17 04:11:38;;;;;;;8.73;5.35;;;;;;;;;;5071445;28;20041;-81
2022/03/17 04:14:05;;;;;;;13.13;6.75;;;;;;;;;;5065363;28;20032;-81
2022/03/17 04:16:34;;;;;;;16.35;7.13;;;;;;;;;;5076399;28;20083;-82
2022/03/17 04:19:03;;;;;;;11.25;6.10;;;;;;;;;;5075422;27;20095;-82
2022/03/17 04:21:32;;;;;;;10.73;5.70;;;;;;;;;;5072335;27;20059;-82
2022/03/17 04:24:00;;;;;;;12.15;6.28;;;;;;;;;;5092899;27;20045;-82
2022/03/17 04:26:32;;;;;;;9.52;5.93;;;;;;;;;;5075852;27;20090;-82
2022/03/17 04:29:09;;;;;;;13.38;6.03;;;;;;;;;;5065970;28;20044;-82
2022/03/17 04:31:36;;;;;;;11.60;5.97;;;;;;;;;;5078379;27;20039;-81
2022/03/17 04:34:05;;;;;;;11.88;6.50;;;;;;;;;;5076912;27;20052;-82
2022/03/17 04:36:32;;;;;;;12.98;5.80;;;;;;;;;;5079161;27;20043;-82
2022/03/17 04:38:59;;;;;;;9.75;6.15;;;;;;;;;;5090236;27;20512;-81
2022/03/17 04:41:28;;;;;;;9.60;5.22;;;;;;;;;;5097786;27;20592;-82
2022/03/17 04:43:54;;;;;;;14.65;6.05;;;;;;;;;;5073649;27;20036;-81
2022/03/17 04:46:20;;;;;;;11.43;5.88;;;;;;;;;;5076935;27;20849;-81
2022/03/17 04:48:47;;;;;;;10.77;5.63;;;;;;;;;;5073263;27;20044;-80
2022/03/17 04:51:13;;;;;;;11.48;6.15;;;;;;;;;;5082414;27;20096;-80
2022/03/17 04:53:39;;;;;;;11.95;6.45;;;;;;;;;;5092089;27;20032;-81
2022/03/17 04:56:10;;;;;;;14.85;6.57;;;;;;;;;;5092075;27;20044;-80
2022/03/17 04:58:37;;;;;;;9.88;5.53;;;;;;;;;;5079795;28;20048;-80
2022/03/17 05:01:09;;;;;;;7.82;5.38;;;;;;;;;;5090866;27;20052;-80
2022/03/17 05:03:35;;;;;;;6.40;4.15;;;;;;;;;;5093407;27;20525;-80
2022/03/17 05:06:04;;;;;;;8.60;3.95;;;;;;;;;;5074512;27;20048;-81
2022/03/17 05:08:40;;;;;;;12.23;6.68;;;;;;;;;;5079322;28;20858;-80
2022/03/17 05:11:09;;;;;;;9.35;5.93;;;;;;;;;;5070661;27;20036;-81
2022/03/17 05:13:35;;;;;;;7.80;4.93;;;;;;;;;;5074732;27;21094;-81
2022/03/17 05:16:05;;;;;;;11.35;5.97;;;;;;;;;;5091878;27;20517;-82
2022/03/17 05:18:31;;;;;;;11.40;4.95;;;;;;;;;;5075005;27;20769;-81
2022/03/17 05:21:03;;;;;;;9.85;5.22;;;;;;;;;;5069314;27;20042;-82
2022/03/17 05:23:31;;;;;;;6.10;3.30;;;;;;;;;;5100735;27;20096;-82
2022/03/17 05:26:01;;;;;;;11.23;5.47;;;;;;;;;;5072001;28;20049;-82
2022/03/17 05:28:27;;;;;;;10.40;5.93;;;;;;;;;;5079852;27;20094;-81
2022/03/17 05:31:02;;;;;;;14.40;5.03;;;;;;;;;;5077352;27;20097;-80
2022/03/17 05:33:28;;;;;;;14.35;6.15;;;;;;;;;;5095165;27;20040;-81
2022/03/17 05:36:00;;;;;;;8.45;4.50;;;;;;;;;;5076252;28;20131;-82
2022/03/17 05:38:29;;;;;;;9.27;5.50;;;;;;;;;;5071534;28;20533;-81
2022/03/17 05:40:57;;;;;;;11.70;5.35;;;;;;;;;;5077390;27;20036;-82
2022/03/17 05:43:24;;;;;;;11.23;6.57;;;;;;;;;;5075501;28;20040;-82
2022/03/17 05:45:53;;;;;;;7.53;3.72;;;;;;;;;;5071516;28;22249;-81
2022/03/17 05:48:21;;;;;;;10.02;5.30;;;;;;;;;;5089996;27;20090;-82
2022/03/17 05:50:48;;;;;;;8.65;5.03;;;;;;;;;;5075003;28;20047;-82
2022/03/17 05:53:16;;;;;;;11.02;4.40;;;;;;;;;;5073890;28;21687;-82
2022/03/17 05:55:45;;;;;;;9.90;4.70;;;;;;;;;;5094737;27;20514;-82
2022/03/17 05:58:11;;;;;;;10.32;4.93;;;;;;;;;;5076964;28;20070;-82
2022/03/17 06:00:38;;;;;;;7.90;4.07;;;;;;;;;;5095339;27;20095;-82
2022/03/17 06:03:04;;;;;;;6.72;4.43;;;;;;;;;;5074441;28;20040;-83
2022/03/17 06:05:30;;;;;;;9.93;6.00;;;;;;;;;;5073565;28;20050;-81
2022/03/17 06:08:00;;;;;;;6.13;5.07;;;;;;;;;;5071965;28;20044;-81
2022/03/17 06:10:28;;;;;;;8.95;4.20;;;;;;;;;;5088790;27;20041;-76
2022/03/17 06:13:12;;;;;;;8.27;4.78;;;;;;;;;;5075315;27;21250;-86
2022/03/17 06:15:38;;;;;;;9.75;4.93;;;;;;;;;;5069238;28;20052;-81
2022/03/17 06:18:11;;;;;;;8.07;4.90;;;;;;;;;;5073494;28;20604;-88
2022/03/17 06:20:39;;;;;;;;;;;;;;;;;;5074040;27;20044;-81
2022/03/17 06:23:08;;;;;;;4.55;2.88;;;;;;;;;;5074711;27;19926;-77
2022/03/17 06:25:41;;;;;;;9.93;4.55;;;;;;;;;;5073205;27;20044;-79
2022/03/17 06:28:11;;;;;;;5.97;3.30;;;;;;;;;;5070297;27;20051;-77
2022/03/17 06:30:38;;;;;;;3.92;3.03;;;;;;;;;;5092479;27;20036;-77
2022/03/17 06:33:06;;;;;;;7.28;4.47;;;;;;;;;;5077577;27;20051;-77
2022/03/17 06:35:33;;;;;;;7.15;3.90;;;;;;;;;;5076607;28;20040;-77
2022/03/17 06:38:02;;;;;;;8.35;4.45;;;;;;;;;;5075466;27;20055;-78
2022/03/17 06:40:29;;;;;;;9.25;3.75;;;;;;;;;;5091938;27;20048;-76
2022/03/17 06:42:55;;;;;;;10.07;4.35;;;;;;;;;;5070240;27;20040;-76
2022/03/17 06:45:22;;;;;;;11.95;4.70;;;;;;;;;;5093022;27;20155;-76
2022/03/17 06:47:48;;;;;;;7.03;3.45;;;;;;;;;;5072187;27;20086;-76
2022/03/17 06:50:15;;;;;;;6.88;3.67;;;;;;;;;;5092580;27;20036;-77
2022/03/17 06:52:46;;;;;;;7.20;2.67;;;;;;;;;;5068734;27;20037;-79
2022/03/17 06:55:16;;;;;;;4.28;2.28;;;;;;;;;;5074660;27;20051;-77
2022/03/17 06:57:42;;;;;;;6.35;3.33;;;;;;;;;;5075765;27;20143;-77
2022/03/17 07:00:12;;;;;;;2.83;1.45;;;;;;;;;;5089063;27;20780;-77
2022/03/17 07:02:39;;;;;;;3.88;2.40;;;;;;;;;;5077818;27;20071;-77
2022/03/17 07:05:06;;;;;;;8.00;3.53;;;;;;;;;;5093966;27;20477;-76
2022/03/17 07:07:32;;;;;;;1.70;1.45;;;;;;;;;;5073439;27;20045;-76
2022/03/17 07:09:58;;;;;;;2.70;1.67;;;;;;;;;;5094211;27;20047;-77
2022/03/17 07:12:24;;;;;;;8.20;2.00;;;;;;;;;;5071729;27;20326;-82
2022/03/17 07:14:51;;;;;;;7.63;2.63;;;;;;;;;;5095347;27;20044;-81
2022/03/17 07:17:20;;;;;;;6.47;1.33;;;;;;;;;;5073546;28;20155;-80
2022/03/17 07:19:59;;;;;;;4.88;1.73;;;;;;;;;;5067553;27;20044;-80
2022/03/17 07:22:25;;;;;;;5.10;1.60;;;;;;;;;;5071016;28;20052;-81
2022/03/17 07:24:53;;;;;;;6.70;2.30;;;;;;;;;;5069812;28;21059;-80
2022/03/17 07:27:21;;;;;;;4.22;2.20;;;;;;;;;;5079862;28;20052;-80
2022/03/17 07:29:49;;;;;;;1.45;0.85;;;;;;;;;;5083943;28;20039;-80
2022/03/17 07:32:18;;;;;;;4.88;2.55;;;;;;;;;;5088453;28;20039;-80
2022/03/17 07:34:45;;;;;;;8.70;3.10;;;;;;;;;;5088248;28;20037;-80
2022/03/17 07:37:11;;;;;;;2.45;1.95;;;;;;;;;;5076419;28;20515;-79
2022/03/17 07:39:37;;;;;;;3.85;2.47;;;;;;;;;;5071942;28;20045;-79
2022/03/17 07:42:09;;;;;;;5.38;2.75;;;;;;;;;;5074530;28;20059;-79
2022/03/17 07:44:37;;;;;;;3.80;2.28;;;;;;;;;;5066584;28;20044;-79
2022/03/17 07:47:04;;;;;;;4.57;2.30;;;;;;;;;;5068498;28;20056;-79
2022/03/17 07:49:33;;;;;;;4.80;1.85;;;;;;;;;;5072984;28;20044;-79
2022/03/17 07:51:59;;;;;;;4.30;2.00;;;;;;;;;;5077846;28;20047;-80
2022/03/17 07:54:25;;;;;;;5.60;2.15;;;;;;;;;;5068916;28;20098;-79
2022/03/17 07:56:51;;;;;;;3.90;2.33;;;;;;;;;;5074200;28;20076;-80
2022/03/17 07:59:17;;;;;;;4.13;1.83;;;;;;;;;;5071202;28;20049;-80
2022/03/17 08:01:44;;;;;;;6.18;2.45;;;;;;;;;;5061394;28;20503;-80
2022/03/17 08:04:10;;;;;;;2.33;1.50;;;;;;;;;;5075263;28;20045;-80
2022/03/17 08:06:37;;;;;;;3.92;2.33;;;;;;;;;;5075533;28;20098;-79
2022/03/17 08:09:03;;;;;;;9.35;2.45;;;;;;;;;;5063307;28;20056;-79
2022/03/17 08:11:29;;;;;;;5.28;2.10;;;;;;;;;;5070146;28;20042;-79
2022/03/17 08:13:55;;;;;;;3.90;1.75;;;;;;;;;;5065182;28;21545;-79
2022/03/17 08:16:22;;;;;;;6.07;2.78;;;;;;;;;;5076763;27;20049;-80
2022/03/17 08:18:49;;;;;;;7.10;2.33;;;;;;;;;;5081123;28;20044;-79
2022/03/17 08:21:15;;;;;;;5.40;2.15;;;;;;;;;;5092522;27;20048;-80
2022/03/17 08:23:45;;;;;;;9.80;2.35;;;;;;;;;;5073829;28;20029;-81
2022/03/17 08:26:12;;;;;;;3.50;2.45;;;;;;;;;;5069636;28;20056;-80
2022/03/17 08:28:38;;;;;;;3.30;1.90;;;;;;;;;;5078893;28;20041;-79
2022/03/17 08:31:09;;;;;;;5.80;3.15;;;;;;;;;;5091608;27;20062;-80
2022/03/17 08:33:39;;;;;;;4.88;2.80;;;;;;;;;;5074489;28;20072;-79
2022/03/17 08:36:05;;;;;;;7.18;3.47;;;;;;;;;;5075366;28;20047;-79
2022/03/17 08:38:34;;;;;;;3.05;1.85;;;;;;;;;;5072066;28;20040;-80
2022/03/17 08:41:03;;;;;;;5.63;2.33;;;;;;;;;;5091589;27;20052;-80
2022/03/17 08:43:32;;;;;;;3.95;1.92;;;;;;;;;;5074376;28;20043;-80
2022/03/17 08:51:28;;;;;;;3.47;2.22;;;;;;;;;;5091261;27;20532;-80
2022/03/17 08:53:56;;;;;;;7.32;2.95;;;;;;;;;;5071968;28;20044;-80
2022/03/17 08:56:22;;;;;;;6.28;2.17;;;;;;;;;;5073472;28;20052;-79
2022/03/17 08:58:48;;;;;;;2.95;1.30;;;;;;;;;;5068550;28;20053;-79
2022/03/17 09:01:17;;;;;;;4.10;2.22;;;;;;;;;;5093109;27;20040;-80
2022/03/17 09:03:49;;;;;;;6.40;2.10;;;;;;;;;;5081398;27;20048;-80
2022/03/17 09:06:15;;;;;;;6.93;3.53;;;;;;;;;;5070343;27;20049;-81
2022/03/17 09:08:44;;;;;;;5.05;1.90;;;;;;;;;;5091219;27;20036;-81
2022/03/17 09:11:13;;;;;;;6.00;2.25;;;;;;;;;;5079776;27;20075;-80
2022/03/17 09:13:42;;;;;;;6.90;1.40;;;;;;;;;;5068082;28;20048;-80
2022/03/17 09:16:08;;;;;;;6.15;1.73;;;;;;;;;;5077027;28;20047;-80
2022/03/17 09:18:35;;;;;;;6.65;2.17;;;;;;;;;;5077343;28;20060;-80
2022/03/17 09:21:04;;;;;;;5.25;1.55;;;;;;;;;;5094879;27;20043;-79
2022/03/17 09:23:30;;;;;;;3.15;2.00;;;;;;;;;;5075933;28;20033;-80
2022/03/17 09:25:57;;;;;;;2.97;1.70;;;;;;;;;;5076978;28;20101;-79
2022/03/17 09:28:26;;;;;;;5.75;2.17;;;;;;;;;;5074862;28;20040;-79
2022/03/17 09:30:52;;;;;;;2.38;1.35;;;;;;;;;;5095864;27;20612;-79
2022/03/17 09:33:18;;;;;;;3.25;1.55;;;;;;;;;;5079498;28;20039;-80
2022/03/17 09:35:44;;;;;;;7.20;2.13;;;;;;;;;;5078166;27;20065;-80
2022/03/17 09:38:10;;;;;;;5.05;1.48;;;;;;;;;;5073285;28;20460;-80
2022/03/17 09:40:38;;;;;;;2.38;1.42;;;;;;;;;;5072634;27;20064;-80
2022/03/17 09:43:21;;;;;;;3.25;1.77;;;;;;;;;;5077204;27;20043;-80
2022/03/17 09:45:50;;;;;;;3.25;1.50;;;;;;;;;;5080942;28;20132;-80
2022/03/17 09:48:17;;;;;;;2.70;1.55;;;;;;;;;;5071239;28;20099;-79
2022/03/17 09:50:45;;;;;;;5.28;1.85;;;;;;;;;;5073083;28;20037;-80
2022/03/17 09:53:11;;;;;;;4.47;2.28;;;;;;;;;;5067978;28;20920;-79
2022/03/17 09:55:43;;;;;;;9.52;1.73;;;;;;;;;;5085070;27;20047;-79
2022/03/17 09:58:12;;;;;;;;;;;;;;;;;;5078882;28;20529;-80
2022/03/17 10:00:47;;;;;;;1.42;1.25;;;;;;;;;;5074718;28;19948;-79
2022/03/17 10:03:14;;;;;;;4.30;1.45;;;;;;;;;;5073898;28;20540;-79
2022/03/17 10:05:40;;;;;;;1.33;0.80;;;;;;;;;;5079180;28;20168;-79
2022/03/17 10:08:06;;;;;;;4.75;1.50;;;;;;;;;;5091318;27;20096;-79
2022/03/17 10:10:39;;;;;;;4.93;1.15;;;;;;;;;;5092179;27;20093;-79
2022/03/17 10:13:06;;;;;;;4.03;1.80;;;;;;;;;;5089903;27;20032;-79
2022/03/17 10:15:32;;;;;;;1.27;0.63;;;;;;;;;;5072230;28;20056;-79
2022/03/17 10:18:00;;;;;;;3.40;1.08;;;;;;;;;;5070796;28;20052;-80
2022/03/17 10:20:27;;;;;;;2.08;1.50;;;;;;;;;;5067280;28;20087;-78
2022/03/17 10:22:55;;;;;;;6.57;1.42;;;;;;;;;;5069422;28;20041;-77
2022/03/17 10:25:25;;;;;;;8.45;1.08;;;;;;;;;;5075176;28;20061;-78
2022/03/17 10:27:54;;;;;;;2.03;1.30;;;;;;;;;;5064777;28;20040;-78
2022/03/17 10:30:24;;;;;;;1.85;1.27;;;;;;;;;;5069765;28;20052;-78
2022/03/17 10:33:28;;;;;;;1.60;0.98;;;;;;;;;;5071455;28;20033;-78
2022/03/17 10:35:54;;;;;;;6.65;1.88;;;;;;;;;;5033491;28;20246;-78
2022/03/17 10:38:25;;;;;;;2.10;1.15;;;;;;;;;;5078240;28;20102;-78
2022/03/17 10:41:01;;;;;;;4.30;1.58;;;;;;;;;;5071063;28;20330;-77
2022/03/17 10:43:29;;;;;;;2.05;1.70;;;;;;;;;;5073767;28;20049;-77
2022/03/17 10:46:04;;;;;;;1.98;1.08;;;;;;;;;;5073130;28;20116;-77
2022/03/17 10:48:30;;;;;;;1.95;1.25;;;;;;;;;;5080523;28;20123;-77
2022/03/17 10:50:57;;;;;;;9.15;1.63;;;;;;;;;;5077739;28;20098;-78
2022/03/17 10:53:31;;;;;;;5.18;1.45;;;;;;;;;;5078246;28;20521;-77
2022/03/17 10:56:12;;;;;;;1.85;1.00;;;;;;;;;;5070223;28;20057;-78
2022/03/17 10:58:43;;;;;;;1.65;1.33;;;;;;;;;;5073309;28;20048;-78
2022/03/17 11:01:09;;;;;;;6.68;3.05;;;;;;;;;;5083403;28;20213;-78
2022/03/17 11:03:39;;;;;;;2.83;1.60;;;;;;;;;;5077798;28;20033;-79
2022/03/17 11:06:08;;;;;;;2.38;1.10;;;;;;;;;;5083397;28;20075;-77
2022/03/17 11:08:34;;;;;;;2.72;1.65;;;;;;;;;;5075684;28;20085;-77
2022/03/17 11:11:00;;;;;;;4.68;0.82;;;;;;;;;;5074356;28;20045;-78
2022/03/17 11:13:31;;;;;;;4.32;1.52;;;;;;;;;;5076240;28;20036;-81
2022/03/17 11:16:00;;;;;;;5.72;1.45;;;;;;;;;;5072575;28;20447;-77
2022/03/17 11:18:33;;;;;;;3.55;2.30;;;;;;;;;;5068407;28;20052;-79
2022/03/17 11:21:16;;;;;;;5.43;1.67;;;;;;;;;;5072631;28;20049;-78
2022/03/17 11:23:55;;;;;;;6.38;2.08;;;;;;;;;;5074844;28;20654;-78
2022/03/17 11:26:23;;;;;;;2.75;1.52;;;;;;;;;;5072655;28;20059;-79
2022/03/17 11:29:09;;;;;;;2.13;1.60;;;;;;;;;;5067771;28;20116;-79
2022/03/17 11:31:54;;;;;;;2.60;1.08;;;;;;;;;;5071631;28;20052;-79
2022/03/17 11:34:38;;;;;;;3.45;1.13;;;;;;;;;;5070330;28;20037;-79
2022/03/17 11:37:25;;;;;;;5.85;1.67;;;;;;;;;;5073463;28;20033;-79
2022/03/17 11:40:05;;;;;;;2.03;1.20;;;;;;;;;;5068478;28;20037;-79
2022/03/17 11:42:31;;;;;;;4.75;1.80;;;;;;;;;;5075045;28;20124;-79
2022/03/17 11:45:03;;;;;;;7.80;1.48;;;;;;;;;;5065790;28;20051;-79
2022/03/17 11:47:37;;;;;;;3.78;1.70;;;;;;;;;;5069767;28;20610;-79
2022/03/17 11:50:23;;;;;;;3.85;1.30;;;;;;;;;;5070746;28;20033;-78
2022/03/17 11:53:08;;;;;;;3.25;1.45;;;;;;;;;;5071556;28;21194;-78
2022/03/17 11:55:48;;;;;;;6.90;1.48;;;;;;;;;;5066179;28;20120;-78
2022/03/17 11:58:21;;;;;;;1.25;1.08;;;;;;;;;;5070494;28;20132;-79
2022/03/17 12:00:53;;;;;;;9.13;1.88;;;;;;;;;;5067608;28;20091;-78
2022/03/17 12:03:49;;;;;;;4.47;1.92;;;;;;;;;;5069830;28;20051;-79
2022/03/17 12:06:19;;;;;;;2.55;1.42;;;;;;;;;;5056556;28;20130;-78
2022/03/17 12:08:58;;;;;;;4.10;2.95;;;;;;;;;;5071710;28;20936;-79
2022/03/17 12:11:25;;;;;;;2.20;1.40;;;;;;;;;;5070110;28;20052;-79
2022/03/17 12:14:09;;;;;;;3.15;1.55;;;;;;;;;;5070828;28;20600;-80
2022/03/17 12:16:40;;;;;;;4.70;2.30;;;;;;;;;;5072578;27;20129;-79
2022/03/17 12:19:10;;;;;;;7.35;1.45;;;;;;;;;;5091821;27;20129;-79
2022/03/17 12:21:57;;;;;;;3.47;1.55;;;;;;;;;;5089628;27;20055;-79
2022/03/17 12:24:58;;;;;;;3.88;1.27;;;;;;;;;;5072084;28;20516;-79
2022/03/17 12:27:30;;;;;;;2.42;1.30;;;;;;;;;;5031539;28;20072;-79
2022/03/17 12:30:11;;;;;;;1.98;1.30;;;;;;;;;;5063083;27;20688;-79
2022/03/17 12:32:40;;;;;;;3.22;1.60;;;;;;;;;;5096865;27;20561;-79
2022/03/17 12:35:09;;;;;;;2.38;1.33;;;;;;;;;;5082528;28;20477;-79
2022/03/17 12:37:35;;;;;;;3.55;1.90;;;;;;;;;;5089718;27;20040;-79
2022/03/17 12:40:03;;;;;;;3.30;1.58;;;;;;;;;;5088463;27;20045;-80
2022/03/17 12:42:37;;;;;;;3.90;1.67;;;;;;;;;;5072034;28;20129;-79
2022/03/17 12:45:05;;;;;;;2.28;1.50;;;;;;;;;;5070642;28;20045;-80
2022/03/17 12:47:34;;;;;;;4.85;1.65;;;;;;;;;;5090742;27;20489;-80
2022/03/17 12:50:01;;;;;;;1.85;1.20;;;;;;;;;;5073548;28;20930;-79
2022/03/17 12:52:30;;;;;;;7.15;1.90;;;;;;;;;;5079479;28;20042;-79
2022/03/17 12:55:03;;;;;;;2.78;1.60;;;;;;;;;;5068029;27;20098;-80
2022/03/17 12:57:31;;;;;;;6.13;2.45;;;;;;;;;;5072748;27;20068;-79
2022/03/17 13:00:00;;;;;;;2.33;1.40;;;;;;;;;;5080631;27;20139;-79
2022/03/17 13:02:30;;;;;;;3.63;1.75;;;;;;;;;;5069345;28;20044;-79
2022/03/17 13:04:57;;;;;;;4.10;1.77;;;;;;;;;;5079560;27;20519;-79
2022/03/17 13:07:24;;;;;;;5.30;2.30;;;;;;;;;;5089634;28;20143;-79
2022/03/17 13:09:51;;;;;;;2.85;1.48;;;;;;;;;;5086523;27;20124;-79
2022/03/17 13:15:15;;;;;;;2.90;1.92;;;;;;;;;;5090333;27;20045;-80
2022/03/17 13:17:44;;;;;;;4.05;1.35;;;;;;;;;;5098603;27;20044;-79
2022/03/17 13:20:31;;;;;;;2.58;1.55;;;;;;;;;;5094813;27;20470;-79
2022/03/17 13:22:58;;;;;;;2.95;1.60;;;;;;;;;;5074780;27;20087;-76
2022/03/17 13:25:24;;;;;;;2.65;1.58;;;;;;;;;;5092341;27;20095;-76
2022/03/17 13:27:57;;;;;;;4.03;1.73;;;;;;;;;;5074392;27;20044;-77
2022/03/17 13:30:23;;;;;;;2.83;1.42;;;;;;;;;;5081422;27;20044;-77
2022/03/17 13:33:00;;;;;;;7.32;1.98;;;;;;;;;;5081366;27;20765;-76
2022/03/17 13:35:26;;;;;;;7.32;2.33;;;;;;;;;;5072821;27;20041;-76
2022/03/17 13:38:04;;;;;;;2.20;1.77;;;;;;;;;;5094823;27;20522;-77
2022/03/17 13:40:40;;;;;;;2.47;1.30;;;;;;;;;;5094668;27;20043;-77
2022/03/17 13:43:08;;;;;;;8.23;1.67;;;;;;;;;;5078551;27;20514;-77
2022/03/17 13:45:35;;;;;;;7.35;1.70;;;;;;;;;;5075553;28;20085;-77
2022/03/17 13:48:03;;;;;;;4.13;1.60;;;;;;;;;;5077078;28;20079;-76
2022/03/17 13:50:30;;;;;;;4.60;1.80;;;;;;;;;;5073804;27;20593;-75
2022/03/17 13:53:01;;;;;;;1.38;1.20;;;;;;;;;;5078741;27;20036;-77
2022/03/17 13:55:44;;;;;;;3.45;1.95;;;;;;;;;;5091482;27;20036;-76
2022/03/17 13:58:11;;;;;;;2.97;1.30;;;;;;;;;;5067652;28;20048;-77
2022/03/17 14:00:41;;;;;;;2.58;1.90;;;;;;;;;;5069900;28;20044;-77
2022/03/17 14:03:17;;;;;;;7.18;1.80;;;;;;;;;;5072532;27;20489;-79
2022/03/17 14:06:03;;;;;;;3.22;1.65;;;;;;;;;;5074572;27;20040;-78
2022/03/17 14:08:30;;;;;;;3.05;1.52;;;;;;;;;;5076788;27;20127;-78
2022/03/17 14:10:57;;;;;;;4.55;1.98;;;;;;;;;;5072930;27;20048;-80
2022/03/17 14:13:23;;;;;;;9.05;1.95;;;;;;;;;;5081295;28;20619;-78
2022/03/17 14:15:50;;;;;;;9.60;2.00;;;;;;;;;;5076272;27;20094;-79
2022/03/17 14:18:17;;;;;;;3.90;1.70;;;;;;;;;;5094626;27;20621;-79
2022/03/17 14:20:43;;;;;;;3.45;1.65;;;;;;;;;;5078287;27;20113;-79
2022/03/17 14:25:57;;;;;;;6.50;2.15;;;;;;;;;;5088060;27;20153;-79
2022/03/17 14:28:23;;;;;;;4.95;1.55;;;;;;;;;;5075106;28;20047;-79
2022/03/17 14:30:49;;;;;;;3.13;1.55;;;;;;;;;;5082405;28;20084;-79
2022/03/17 14:33:16;;;;;;;6.00;2.35;;;;;;;;;;5078057;27;20126;-79
2022/03/17 14:35:52;;;;;;;4.00;1.80;;;;;;;;;;5079842;27;20046;-78
2022/03/17 14:38:21;;;;;;;5.85;2.83;;;;;;;;;;5076900;28;20076;-79
2022/03/17 14:40:48;;;;;;;2.65;1.55;;;;;;;;;;5093712;27;20498;-79
2022/03/17 14:43:14;;;;;;;3.92;1.92;;;;;;;;;;5072298;28;20614;-78
2022/03/17 14:45:41;;;;;;;9.57;1.80;;;;;;;;;;5092651;27;20037;-78
2022/03/17 14:48:07;;;;;;;4.10;2.28;;;;;;;;;;5081799;28;20138;-81
2022/03/17 14:50:33;;;;;;;4.57;2.00;;;;;;;;;;5077509;28;20045;-75
2022/03/17 14:53:09;;;;;;;2.80;1.80;;;;;;;;;;5087673;27;20051;-79
2022/03/17 14:55:35;;;;;;;4.97;2.25;;;;;;;;;;5085618;27;20091;-79
2022/03/17 14:58:01;;;;;;;3.92;1.73;;;;;;;;;;5073443;28;20693;-77
2022/03/17 15:03:36;;;;;;;3.40;1.90;;;;;;;;;;5098128;27;20048;-82
2022/03/17 15:06:06;;;;;;;4.57;2.63;;;;;;;;;;5093562;27;20509;-79
2022/03/17 15:08:32;;;;;;;3.80;1.92;;;;;;;;;;5076701;28;20046;-76
2022/03/17 15:11:18;;;;;;;1.63;1.23;;;;;;;;;;5081195;28;20064;-85
2022/03/17 15:13:45;;;;;;;7.90;3.65;;;;;;;;;;5079404;28;20041;-77
2022/03/17 15:16:14;;;;;;;5.13;2.08;;;;;;;;;;5081054;28;20048;-80
2022/03/17 15:18:40;;;;;;;3.65;1.98;;;;;;;;;;5076880;28;20036;-79
2022/03/17 15:21:06;;;;;;;2.90;1.33;;;;;;;;;;5079494;28;20055;-79
2022/03/17 15:23:35;;;;;;;3.20;1.92;;;;;;;;;;5091478;27;20029;-80
2022/03/17 15:26:02;;;;;;;4.00;1.95;;;;;;;;;;5094099;27;20996;-78
2022/03/17 15:31:13;;;;;;;2.45;1.50;;;;;;;;;;5091518;27;20048;-79
2022/03/17 15:33:40;;;;;;;3.42;2.00;;;;;;;;;;5074220;27;20044;-79
2022/03/17 15:36:06;;;;;;;2.20;1.60;;;;;;;;;;5096395;27;20040;-79
2022/03/17 15:38:32;;;;;;;5.22;2.25;;;;;;;;;;5074394;27;20059;-79
2022/03/17 15:40:59;;;;;;;5.10;2.55;;;;;;;;;;5077867;27;20052;-79
2022/03/17 15:43:26;;;;;;;6.55;2.60;;;;;;;;;;5078265;27;20662;-79
2022/03/17 15:45:52;;;;;;;4.40;2.13;;;;;;;;;;5075463;28;20799;-79
2022/03/17 15:48:18;;;;;;;7.70;2.47;;;;;;;;;;5094516;27;20040;-80
2022/03/17 15:50:47;;;;;;;4.70;2.65;;;;;;;;;;5097341;27;20115;-79
2022/03/17 15:53:13;;;;;;;7.35;2.58;;;;;;;;;;5096173;27;20043;-80
2022/03/17 15:55:39;;;;;;;7.82;2.55;;;;;;;;;;5074136;28;20120;-80
2022/03/17 15:58:06;;;;;;;3.13;2.00;;;;;;;;;;5089331;27;20043;-79